createdAt,value
2023-03-19T00:00:55.444Z,97317.34
2023-03-19T00:03:23.227Z,97310.13
2023-03-19T00:05:53.291Z,97308.88
2023-03-19T00:08:22.755Z,97306.66
2023-03-19T00:10:51.146Z,97312.84
2023-03-19T00:13:20.075Z,97302.97
2023-03-19T00:15:47.895Z,97301.72
2023-03-19T00:18:16.226Z,97309.56
2023-03-19T00:20:45.143Z,97308.72
2023-03-19T00:23:12.979Z,97300.66
2023-03-19T00:25:40.847Z,97300.28
2023-03-19T00:28:09.267Z,97303.78
2023-03-19T00:30:37.509Z,97305.84
2023-03-19T00:33:05.223Z,97297.78
2023-03-19T00:35:34.086Z,97290.78
2023-03-19T00:38:02.084Z,97293.25
2023-03-19T00:40:33.996Z,97293.03
2023-03-19T00:43:01.748Z,97293.47
2023-03-19T00:45:30.856Z,97295.72
2023-03-19T00:47:58.736Z,97295.66
2023-03-19T00:50:27.055Z,97302.47
2023-03-19T00:52:54.774Z,97310.09
2023-03-19T00:55:22.609Z,97311.53
2023-03-19T00:57:50.820Z,97316.88
2023-03-19T01:00:20.109Z,97322.25
2023-03-19T01:02:47.935Z,97324.31
2023-03-19T01:05:16.019Z,97315.84
2023-03-19T01:07:43.857Z,97313.16
2023-03-19T01:10:12.312Z,97321.63
2023-03-19T01:12:40.140Z,97325.34
2023-03-19T01:15:09.063Z,97318.31
2023-03-19T01:17:37.286Z,97320.38
2023-03-19T01:20:13.295Z,97320.75
2023-03-19T01:22:42.592Z,97342.44
2023-03-19T01:25:13.879Z,97353.56
2023-03-19T01:27:48.084Z,97345.31
2023-03-19T01:30:16.762Z,97347.81
2023-03-19T01:33:08.328Z,97353.63
2023-03-19T01:35:53.165Z,97348.66
2023-03-19T01:38:23.967Z,97363.53
2023-03-19T01:40:52.656Z,97382.13
2023-03-19T01:43:30.824Z,97384.75
2023-03-19T01:46:36.375Z,97384.94
2023-03-19T01:49:21.583Z,97394.25
2023-03-19T01:51:57.348Z,97404.53
2023-03-19T01:54:37.186Z,97412.34
2023-03-19T01:57:20.517Z,97405.88
2023-03-19T02:00:21.737Z,97415.53
2023-03-19T02:02:54.353Z,97421.50
2023-03-19T02:05:46.670Z,97413.19
2023-03-19T02:08:19.194Z,97410.28
2023-03-19T02:10:47.997Z,97406.94
2023-03-19T02:13:16.238Z,97406.31
2023-03-19T02:15:43.988Z,97406.72
2023-03-19T02:18:12.131Z,97403.63
2023-03-19T02:21:23.776Z,97400.72
2023-03-19T02:24:03.380Z,97394.78
2023-03-19T02:26:51.752Z,97379.50
2023-03-19T02:29:19.831Z,97372.31
2023-03-19T02:31:48.075Z,97367.41
2023-03-19T02:34:21.987Z,97368.03
2023-03-19T02:37:11.905Z,97370.28
2023-03-19T02:39:50.907Z,97365.72
2023-03-19T02:42:21.637Z,97365.28
2023-03-19T02:44:49.347Z,97373.09
2023-03-19T02:47:17.668Z,97370.19
2023-03-19T02:49:46.124Z,97381.28
2023-03-19T02:52:14.444Z,97387.78
2023-03-19T02:54:42.170Z,97383.00
2023-03-19T02:57:10.236Z,97385.59
2023-03-19T02:59:39.045Z,97389.31
2023-03-19T03:02:07.163Z,97390.50
2023-03-19T03:04:37.128Z,97394.22
2023-03-19T03:07:06.294Z,97389.03
2023-03-19T03:09:34.615Z,97391.06
2023-03-19T03:12:03.210Z,97392.84
2023-03-19T03:14:31.023Z,97390.13
2023-03-19T03:16:58.889Z,97392.53
2023-03-19T03:19:27.075Z,97390.81
2023-03-19T03:21:55.287Z,97387.69
2023-03-19T03:24:23.119Z,97393.63
2023-03-19T03:26:51.077Z,97392.16
2023-03-19T03:29:21.561Z,97392.34
2023-03-19T03:31:49.412Z,97390.59
2023-03-19T03:34:18.083Z,97387.66
2023-03-19T03:36:47.036Z,97394.41
2023-03-19T03:39:15.005Z,97396.44
2023-03-19T03:41:43.172Z,97395.00
2023-03-19T03:44:11.015Z,97393.13
2023-03-19T03:46:41.258Z,97387.97
2023-03-19T03:49:09.581Z,97396.38
2023-03-19T03:51:37.546Z,97400.88
2023-03-19T03:54:05.991Z,97400.88
2023-03-19T03:56:34.196Z,97407.09
2023-03-19T03:59:02.268Z,97405.88
2023-03-19T04:01:30.960Z,97404.84
2023-03-19T04:03:58.690Z,97409.00
2023-03-19T04:06:27.593Z,97407.78
2023-03-19T04:09:13.691Z,97410.09
2023-03-19T04:11:42.023Z,97414.06
2023-03-19T04:14:10.094Z,97411.25
2023-03-19T04:16:39.787Z,97409.22
2023-03-19T04:19:07.712Z,97414.03
2023-03-19T04:21:35.781Z,97418.34
2023-03-19T04:24:04.594Z,97419.63
2023-03-19T04:26:32.656Z,97417.41
2023-03-19T04:29:00.506Z,97412.69
2023-03-19T04:31:29.266Z,97416.81
2023-03-19T04:33:57.627Z,97423.47
2023-03-19T04:36:25.716Z,97424.94
2023-03-19T04:38:53.697Z,97414.84
2023-03-19T04:41:22.716Z,97421.22
2023-03-19T04:44:04.840Z,97416.72
2023-03-19T04:46:34.005Z,97423.25
2023-03-19T04:49:02.568Z,97420.59
2023-03-19T04:51:31.000Z,97423.53
2023-03-19T04:53:58.856Z,97424.97
2023-03-19T04:56:28.006Z,97419.63
2023-03-19T04:58:56.926Z,97426.03
2023-03-19T05:01:25.163Z,97427.84
2023-03-19T05:04:03.210Z,97423.34
2023-03-19T05:06:33.298Z,97431.38
2023-03-19T05:09:01.496Z,97430.16
2023-03-19T05:11:29.338Z,97429.97
2023-03-19T05:14:03.307Z,97436.97
2023-03-19T05:16:40.643Z,97437.59
2023-03-19T05:19:08.947Z,97434.88
2023-03-19T05:21:37.879Z,97445.13
2023-03-19T05:24:06.914Z,97441.44
2023-03-19T05:26:38.246Z,97441.25
2023-03-19T05:29:26.729Z,97440.88
2023-03-19T05:32:10.540Z,97444.63
2023-03-19T05:34:39.087Z,97446.50
2023-03-19T05:37:08.739Z,97448.25
2023-03-19T05:39:36.829Z,97441.25
2023-03-19T05:42:08.502Z,97449.94
2023-03-19T05:44:36.849Z,97449.28
2023-03-19T05:47:27.103Z,97453.81
2023-03-19T05:49:57.697Z,97456.88
2023-03-19T05:52:25.902Z,97454.84
2023-03-19T05:54:57.119Z,97447.63
2023-03-19T05:57:46.308Z,97453.81
2023-03-19T06:00:21.223Z,97465.75
2023-03-19T06:02:48.963Z,97457.88
2023-03-19T06:05:36.118Z,97467.38
2023-03-19T06:08:12.950Z,97460.00
2023-03-19T06:10:54.712Z,97462.28
2023-03-19T06:13:23.036Z,97467.06
2023-03-19T06:15:56.790Z,97480.28
2023-03-19T06:18:30.121Z,97479.28
2023-03-19T06:20:57.855Z,97485.44
2023-03-19T06:23:26.201Z,97483.44
2023-03-19T06:25:54.009Z,97478.72
2023-03-19T06:28:24.490Z,97482.44
2023-03-19T06:30:56.186Z,97490.25
2023-03-19T06:33:44.064Z,97482.13
2023-03-19T06:36:12.030Z,97481.09
2023-03-19T06:38:40.232Z,97483.75
2023-03-19T06:41:08.074Z,97478.41
2023-03-19T06:43:41.429Z,97475.34
2023-03-19T06:46:11.718Z,97477.84
2023-03-19T06:48:39.644Z,97478.66
2023-03-19T06:51:07.958Z,97484.84
2023-03-19T06:53:36.052Z,97474.13
2023-03-19T06:56:04.161Z,97477.44
2023-03-19T06:58:31.981Z,97480.94
2023-03-19T07:01:01.462Z,97483.44
2023-03-19T07:03:29.341Z,97481.59
2023-03-19T07:05:57.175Z,97482.25
2023-03-19T07:08:29.611Z,97488.25
2023-03-19T07:11:02.938Z,97490.72
2023-03-19T07:13:30.913Z,97493.47
2023-03-19T07:15:59.463Z,97493.28
2023-03-19T07:18:27.306Z,97494.75
2023-03-19T07:20:55.149Z,97500.56
2023-03-19T07:23:23.246Z,97503.88
2023-03-19T07:25:51.190Z,97507.19
2023-03-19T07:28:18.923Z,97501.44
2023-03-19T07:30:46.649Z,97505.97
2023-03-19T07:33:14.553Z,97501.22
2023-03-19T07:35:42.368Z,97512.59
2023-03-19T07:38:10.410Z,97511.38
2023-03-19T07:40:40.069Z,97516.97
2023-03-19T07:43:11.251Z,97511.88
2023-03-19T07:45:39.010Z,97513.97
2023-03-19T07:48:06.955Z,97514.59
2023-03-19T07:50:35.479Z,97518.16
2023-03-19T07:53:03.817Z,97511.84
2023-03-19T07:55:31.912Z,97519.72
2023-03-19T07:58:00.096Z,97509.25
2023-03-19T08:00:27.945Z,97506.19
2023-03-19T08:02:55.799Z,97508.06
2023-03-19T08:05:23.514Z,97512.22
2023-03-19T08:07:51.709Z,97514.06
2023-03-19T08:10:19.802Z,97508.91
2023-03-19T08:12:47.881Z,97521.09
2023-03-19T08:15:15.955Z,97513.66
2023-03-19T08:17:43.680Z,97513.88
2023-03-19T08:20:18.503Z,97508.69
2023-03-19T08:22:51.023Z,97509.72
2023-03-19T08:25:19.209Z,97506.81
2023-03-19T08:27:47.306Z,97507.19
2023-03-19T08:30:15.851Z,97515.00
2023-03-19T08:32:47.210Z,97519.97
2023-03-19T08:35:15.267Z,97521.66
2023-03-19T08:37:43.103Z,97516.28
2023-03-19T08:40:12.160Z,97521.00
2023-03-19T08:42:44.376Z,97518.97
2023-03-19T08:45:15.032Z,97521.44
2023-03-19T08:47:43.830Z,97526.81
2023-03-19T08:50:12.402Z,97529.09
2023-03-19T08:52:40.473Z,97523.31
2023-03-19T08:55:09.532Z,97522.56
2023-03-19T08:57:37.360Z,97525.50
2023-03-19T09:00:06.884Z,97530.06
2023-03-19T09:02:34.724Z,97526.63
2023-03-19T09:05:02.566Z,97529.56
2023-03-19T09:07:30.649Z,97535.38
2023-03-19T09:09:58.489Z,97538.88
2023-03-19T09:12:26.573Z,97531.66
2023-03-19T09:14:54.297Z,97539.06
2023-03-19T09:17:22.024Z,97538.25
2023-03-19T09:19:49.860Z,97538.25
2023-03-19T09:22:17.591Z,97538.88
2023-03-19T09:24:45.549Z,97534.75
2023-03-19T09:27:13.392Z,97541.56
2023-03-19T09:29:41.598Z,97538.69
2023-03-19T09:32:09.672Z,97542.81
2023-03-19T09:34:37.754Z,97538.53
2023-03-19T09:37:05.719Z,97539.97
2023-03-19T09:39:33.683Z,97535.41
2023-03-19T09:42:12.566Z,97546.16
2023-03-19T09:44:45.482Z,97542.06
2023-03-19T09:47:32.731Z,97538.59
2023-03-19T09:50:18.468Z,97537.84
2023-03-19T09:52:49.901Z,97534.34
2023-03-19T09:55:51.609Z,97528.56
2023-03-19T09:58:25.059Z,97535.59
2023-03-19T10:00:54.340Z,97528.34
2023-03-19T10:03:31.797Z,97533.72
2023-03-19T10:06:25.555Z,97529.34
2023-03-19T10:09:17.149Z,97529.97
2023-03-19T10:12:06.593Z,97534.53
2023-03-19T10:14:44.666Z,97526.66
2023-03-19T10:17:27.121Z,97536.19
2023-03-19T10:20:17.166Z,97534.34
2023-03-19T10:22:55.337Z,97543.41
2023-03-19T10:25:27.724Z,97528.34
2023-03-19T10:28:17.168Z,97521.75
2023-03-19T10:30:58.343Z,97523.63
2023-03-19T10:33:46.130Z,97519.06
2023-03-19T10:36:16.204Z,97512.06
2023-03-19T10:38:44.666Z,97508.53
2023-03-19T10:41:49.120Z,97509.84
2023-03-19T10:44:34.537Z,97502.63
2023-03-19T10:47:24.778Z,97502.00
2023-03-19T10:49:52.959Z,97498.69
2023-03-19T10:52:28.849Z,97500.34
2023-03-19T10:55:30.521Z,97494.13
2023-03-19T10:58:20.696Z,97497.25
2023-03-19T11:00:55.745Z,97489.38
2023-03-19T11:03:55.176Z,97493.94
2023-03-19T11:06:37.497Z,97489.78
2023-03-19T11:09:08.101Z,97488.53
2023-03-19T11:11:56.693Z,97488.75
2023-03-19T11:14:33.817Z,97485.22
2023-03-19T11:17:20.937Z,97484.16
2023-03-19T11:19:59.834Z,97481.22
2023-03-19T11:22:33.735Z,97485.75
2023-03-19T11:25:24.788Z,97474.81
2023-03-19T11:28:26.501Z,97472.09
2023-03-19T11:31:34.118Z,97474.34
2023-03-19T11:34:32.242Z,97473.22
2023-03-19T11:37:28.278Z,97472.34
2023-03-19T11:40:37.313Z,97467.16
2023-03-19T11:43:38.371Z,97467.44
2023-03-19T11:46:46.766Z,97469.06
2023-03-19T11:49:37.294Z,97467.56
2023-03-19T11:52:27.209Z,97467.81
2023-03-19T11:55:25.173Z,97460.97
2023-03-19T11:58:20.259Z,97455.16
2023-03-19T12:00:55.899Z,97470.13
2023-03-19T12:04:21.231Z,97463.50
2023-03-19T12:07:42.495Z,97461.84
2023-03-19T12:10:44.758Z,97457.50
2023-03-19T12:13:52.795Z,97451.28
2023-03-19T12:16:53.342Z,97475.03
2023-03-19T12:19:32.036Z,97494.91
2023-03-19T12:22:26.387Z,97501.31
2023-03-19T12:25:09.191Z,97515.47
2023-03-19T12:27:58.941Z,97537.78
2023-03-19T12:31:27.687Z,97499.13
2023-03-19T12:34:36.520Z,97499.59
2023-03-19T12:37:25.989Z,97486.97
2023-03-19T12:40:14.576Z,97490.91
2023-03-19T12:42:43.466Z,97480.19
2023-03-19T12:45:29.512Z,97480.84
2023-03-19T12:48:22.375Z,97481.03
2023-03-19T12:50:54.229Z,97479.09
2023-03-19T12:53:56.428Z,97473.47
2023-03-19T12:57:01.410Z,97480.19
2023-03-19T12:59:46.394Z,97473.38
2023-03-19T13:02:47.942Z,97479.19
2023-03-19T13:05:15.404Z,97476.31
2023-03-19T13:08:06.637Z,97472.91
2023-03-19T13:10:36.503Z,97477.84
2023-03-19T13:13:50.487Z,97482.72
2023-03-19T13:16:45.308Z,97470.25
2023-03-19T13:19:40.305Z,97482.00
2023-03-19T13:22:14.075Z,97478.69
2023-03-19T13:24:44.617Z,97472.13
2023-03-19T13:27:35.671Z,97480.06
2023-03-19T13:30:18.814Z,97478.22
2023-03-19T13:32:54.398Z,97480.75
2023-03-19T13:35:36.572Z,97479.75
2023-03-19T13:38:34.280Z,97480.81
2023-03-19T13:41:02.484Z,97487.34
2023-03-19T13:43:29.936Z,97489.03
2023-03-19T13:46:12.745Z,97492.56
2023-03-19T13:48:45.747Z,97494.06
2023-03-19T13:51:17.819Z,97484.19
2023-03-19T13:54:12.769Z,97482.59
2023-03-19T13:56:58.547Z,97496.25
2023-03-19T13:59:43.374Z,97494.59
2023-03-19T14:02:23.032Z,97503.28
2023-03-19T14:05:21.433Z,97500.03
2023-03-19T14:07:54.692Z,97482.25
2023-03-19T14:10:27.859Z,97483.94
2023-03-19T14:13:16.863Z,97479.44
2023-03-19T14:15:50.740Z,97475.09
2023-03-19T14:18:22.313Z,97479.22
2023-03-19T14:21:08.865Z,97485.84
2023-03-19T14:23:52.618Z,97476.53
2023-03-19T14:26:28.792Z,97483.56
2023-03-19T14:29:05.956Z,97480.28
2023-03-19T14:31:55.848Z,97485.03
2023-03-19T14:34:32.207Z,97483.56
2023-03-19T14:37:35.976Z,97480.47
2023-03-19T14:40:25.124Z,97477.78
2023-03-19T14:43:10.232Z,97478.81
2023-03-19T14:46:12.899Z,97486.47
2023-03-19T14:49:43.497Z,97476.34
2023-03-19T14:52:26.708Z,97479.66
2023-03-19T14:55:14.597Z,97485.84
2023-03-19T14:57:43.354Z,97486.66
2023-03-19T15:00:18.164Z,97482.31
2023-03-19T15:02:50.166Z,97480.03
2023-03-19T15:05:34.029Z,97491.38
2023-03-19T15:08:04.413Z,97500.88
2023-03-19T15:11:14.378Z,97490.72
2023-03-19T15:14:34.611Z,97484.69
2023-03-19T15:17:21.388Z,97485.50
2023-03-19T15:19:49.781Z,97491.66
2023-03-19T15:22:26.181Z,97485.03
2023-03-19T15:24:53.993Z,97487.06
2023-03-19T15:27:27.220Z,97492.66
2023-03-19T15:30:02.093Z,97498.66
2023-03-19T15:33:10.558Z,97493.41
2023-03-19T15:35:36.323Z,97496.28
2023-03-19T15:38:10.589Z,97505.28
2023-03-19T15:40:40.642Z,97505.91
2023-03-19T15:43:11.442Z,97510.91
2023-03-19T15:45:40.853Z,97517.50
2023-03-19T15:48:23.910Z,97507.34
2023-03-19T15:50:58.351Z,97517.00
2023-03-19T15:53:31.454Z,97516.06
2023-03-19T15:56:02.409Z,97519.78
2023-03-19T15:58:37.136Z,97512.72
2023-03-19T16:01:09.825Z,97525.06
2023-03-19T16:03:44.839Z,97534.00
2023-03-19T16:06:24.473Z,97539.84
2023-03-19T16:08:55.551Z,97538.00
2023-03-19T16:11:41.941Z,97533.84
2023-03-19T16:14:42.256Z,97543.66
2023-03-19T16:17:15.839Z,97553.06
2023-03-19T16:20:01.989Z,97554.34
2023-03-19T16:22:32.667Z,97568.00
2023-03-19T16:25:02.381Z,97562.25
2023-03-19T16:27:39.101Z,97557.72
2023-03-19T16:30:27.793Z,97549.31
2023-03-19T16:33:00.952Z,97550.00
2023-03-19T16:35:31.563Z,97547.13
2023-03-19T16:38:24.084Z,97549.47
2023-03-19T16:41:33.868Z,97555.13
2023-03-19T16:44:16.656Z,97563.84
2023-03-19T16:46:44.900Z,97569.41
2023-03-19T16:49:12.498Z,97563.41
2023-03-19T16:51:40.199Z,97566.28
2023-03-19T16:54:12.694Z,97570.44
2023-03-19T16:56:40.513Z,97572.09
2023-03-19T16:59:19.770Z,97577.66
2023-03-19T17:01:47.294Z,97579.88
2023-03-19T17:04:17.574Z,97578.41
2023-03-19T17:06:45.595Z,97583.78
2023-03-19T17:09:13.122Z,97589.16
2023-03-19T17:11:42.986Z,97590.16
2023-03-19T17:14:21.834Z,97593.47
2023-03-19T17:16:54.198Z,97600.88
2023-03-19T17:19:26.284Z,97608.47
2023-03-19T17:21:58.633Z,97602.47
2023-03-19T17:24:33.325Z,97613.38
2023-03-19T17:27:04.303Z,97614.59
2023-03-19T17:29:33.130Z,97625.50
2023-03-19T17:32:04.172Z,97630.03
2023-03-19T17:34:32.026Z,97634.94
2023-03-19T17:37:06.348Z,97628.75
2023-03-19T17:39:34.101Z,97638.44
2023-03-19T17:42:01.598Z,97638.66
2023-03-19T17:44:29.420Z,97633.31
2023-03-19T17:46:57.256Z,97651.03
2023-03-19T17:49:32.389Z,97650.22
2023-03-19T17:52:00.243Z,97650.84
2023-03-19T17:54:27.956Z,97654.34
2023-03-19T17:56:56.084Z,97650.03
2023-03-19T17:59:24.116Z,97662.41
2023-03-19T18:01:52.018Z,97652.53
2023-03-19T18:04:21.559Z,97654.16
2023-03-19T18:06:55.294Z,97653.34
2023-03-19T18:09:28.395Z,97653.72
2023-03-19T18:11:56.047Z,97644.66
2023-03-19T18:14:23.591Z,97650.66
2023-03-19T18:16:51.359Z,97653.53
2023-03-19T18:19:28.082Z,97652.44
2023-03-19T18:21:55.619Z,97646.78
2023-03-19T18:24:23.625Z,97644.13
2023-03-19T18:26:51.778Z,97647.84
2023-03-19T18:29:19.448Z,97640.78
2023-03-19T18:31:50.264Z,97648.00
2023-03-19T18:34:18.284Z,97650.69
2023-03-19T18:36:45.863Z,97651.25
2023-03-19T18:39:16.047Z,97653.31
2023-03-19T18:41:44.203Z,97657.75
2023-03-19T18:44:12.330Z,97658.50
2023-03-19T18:46:41.758Z,97659.88
2023-03-19T18:49:24.796Z,97659.13
2023-03-19T18:52:08.650Z,97661.53
2023-03-19T18:54:36.218Z,97664.75
2023-03-19T18:57:03.980Z,97668.00
2023-03-19T18:59:33.556Z,97671.03
2023-03-19T19:02:28.398Z,97677.78
2023-03-19T19:04:55.990Z,97677.88
2023-03-19T19:07:23.621Z,97683.09
2023-03-19T19:09:51.260Z,97688.38
2023-03-19T19:12:19.476Z,97685.03
2023-03-19T19:14:47.594Z,97689.38
2023-03-19T19:17:23.962Z,97698.06
2023-03-19T19:19:51.581Z,97704.59
2023-03-19T19:22:20.234Z,97702.09
2023-03-19T19:24:47.812Z,97709.88
2023-03-19T19:27:20.152Z,97710.22
2023-03-19T19:29:49.006Z,97708.91
2023-03-19T19:32:25.737Z,97706.31
2023-03-19T19:34:53.751Z,97704.56
2023-03-19T19:37:23.416Z,97704.41
2023-03-19T19:39:51.368Z,97701.81
2023-03-19T19:42:21.969Z,97704.72
2023-03-19T19:44:55.924Z,97702.78
2023-03-19T19:47:23.472Z,97701.75
2023-03-19T19:49:50.996Z,97709.78
2023-03-19T19:52:19.541Z,97708.84
2023-03-19T19:54:47.605Z,97704.00
2023-03-19T19:57:24.918Z,97704.22
2023-03-19T19:59:53.935Z,97710.22
2023-03-19T20:02:29.426Z,97720.25
2023-03-19T20:04:58.464Z,97723.25
2023-03-19T20:07:27.064Z,97725.75
2023-03-19T20:09:54.655Z,97726.59
2023-03-19T20:12:30.934Z,97725.75
2023-03-19T20:14:59.522Z,97737.78
2023-03-19T20:17:27.622Z,97738.97
2023-03-19T20:19:55.232Z,97741.16
2023-03-19T20:22:22.761Z,97741.16
2023-03-19T20:24:51.514Z,97732.63
2023-03-19T20:27:26.331Z,97740.97
2023-03-19T20:29:54.202Z,97743.66
2023-03-19T20:32:36.988Z,97745.66
2023-03-19T20:35:14.596Z,97750.50
2023-03-19T20:37:42.136Z,97752.97
2023-03-19T20:40:11.709Z,97749.81
2023-03-19T20:42:41.201Z,97749.28
2023-03-19T20:45:20.449Z,97753.63
2023-03-19T20:47:51.986Z,97753.63
2023-03-19T20:50:33.105Z,97760.81
2023-03-19T20:53:03.832Z,97765.16
2023-03-19T20:55:34.667Z,97768.72
2023-03-19T20:58:18.287Z,97768.59
2023-03-19T21:00:45.945Z,97773.63
2023-03-19T21:03:22.485Z,97772.66
2023-03-19T21:06:01.813Z,97772.34
2023-03-19T21:08:40.011Z,97777.19
2023-03-19T21:11:18.020Z,97775.03
2023-03-19T21:13:48.291Z,97775.56
2023-03-19T21:16:23.041Z,97778.56
2023-03-19T21:18:51.719Z,97782.94
2023-03-19T21:21:33.279Z,97785.75
2023-03-19T21:24:06.944Z,97785.09
2023-03-19T21:26:39.077Z,97785.94
2023-03-19T21:29:15.831Z,97784.59
2023-03-19T21:31:44.352Z,97792.09
2023-03-19T21:34:14.569Z,97790.91
2023-03-19T21:36:42.122Z,97794.72
2023-03-19T21:39:09.697Z,97800.88
2023-03-19T21:41:37.333Z,97795.16
2023-03-19T21:44:18.510Z,97803.97
2023-03-19T21:46:48.281Z,97808.81
2023-03-19T21:49:17.576Z,97802.47
2023-03-19T21:51:45.156Z,97797.41
2023-03-19T21:54:12.741Z,97801.78
2023-03-19T21:56:42.971Z,97803.44
2023-03-19T21:59:19.591Z,97803.44
2023-03-19T22:01:47.359Z,97801.78
2023-03-19T22:04:15.274Z,97811.28
2023-03-19T22:06:43.010Z,97810.09
2023-03-19T22:09:10.938Z,97815.44
2023-03-19T22:11:39.798Z,97813.78
2023-03-19T22:14:24.499Z,97813.78
2023-03-19T22:16:55.108Z,97825.66
2023-03-19T22:19:23.730Z,97827.66
2023-03-19T22:21:51.252Z,97835.38
2023-03-19T22:24:18.821Z,97837.53
2023-03-19T22:26:49.478Z,97836.22
2023-03-19T22:29:25.196Z,97845.28
2023-03-19T22:31:55.702Z,97843.25
2023-03-19T22:34:27.519Z,97849.13
2023-03-19T22:36:55.209Z,97835.81
2023-03-19T22:39:22.711Z,97841.97
2023-03-19T22:41:50.794Z,97845.63
2023-03-19T22:44:30.333Z,97848.97
2023-03-19T22:47:00.174Z,97848.69
2023-03-19T22:49:29.623Z,97858.19
2023-03-19T22:51:57.607Z,97853.16
2023-03-19T22:54:26.060Z,97859.66
2023-03-19T22:56:53.773Z,97859.34
2023-03-19T22:59:21.545Z,97870.56
2023-03-19T23:01:49.411Z,97857.84
2023-03-19T23:04:29.557Z,97856.50
2023-03-19T23:06:59.983Z,97849.66
2023-03-19T23:09:32.097Z,97854.84
2023-03-19T23:12:00.150Z,97856.50
2023-03-19T23:14:30.620Z,97852.00
2023-03-19T23:17:03.426Z,97851.16
2023-03-19T23:19:37.161Z,97847.16
2023-03-19T23:22:13.402Z,97856.84
2023-03-19T23:24:42.217Z,97851.50
2023-03-19T23:27:25.963Z,97845.81
2023-03-19T23:29:54.481Z,97841.81
2023-03-19T23:32:22.521Z,97837.28
2023-03-19T23:34:59.413Z,97841.44
2023-03-19T23:37:29.025Z,97836.25
2023-03-19T23:39:57.722Z,97840.25
2023-03-19T23:42:30.037Z,97835.41
2023-03-19T23:45:02.004Z,97835.41
2023-03-19T23:47:30.530Z,97832.22
2023-03-19T23:49:58.477Z,97832.06
2023-03-19T23:52:26.075Z,97836.63
2023-03-19T23:54:53.638Z,97837.78
2023-03-19T23:57:26.683Z,97836.78
2023-03-19T23:59:54.585Z,97834.63
